Time;durP1;ratioP1;P1;durP2;ratioP2;P2;SDS_P1;SDS_P2;PMS_P1;PMS_P2;Temp;Humidity;BMP_temperature;BMP_pressure;BME280_temperature;BME280_humidity;BME280_pressure;Samples;Min_cycle;Max_cycle;Signal;HPM_P1;HPM_P2
2023/04/11 05:42:44;;;;;;;7.15;2.45;;;7.50;99.90;;;;;;5054329;23;20047;-78
2023/04/11 05:45:10;;;;;;;7.13;2.75;;;7.50;99.90;;;;;;4915977;29;20053;-77
2023/04/11 05:47:36;;;;;;;10.88;3.13;;;7.50;99.90;;;;;;4917242;29;20043;-76
2023/04/11 05:50:02;;;;;;;9.73;2.53;;;7.60;99.90;;;;;;4932520;29;20387;-77
2023/04/11 05:52:28;;;;;;;8.70;2.80;;;7.60;99.90;;;;;;4904276;29;20036;-78
2023/04/11 05:54:53;;;;;;;8.40;2.60;;;7.60;99.90;;;;;;4944512;23;20107;-73
2023/04/11 05:57:19;;;;;;;12.70;3.35;;;7.60;99.90;;;;;;4938015;29;20374;-73
2023/04/11 05:59:48;;;;;;;9.60;3.10;;;7.70;99.90;;;;;;4949804;29;20118;-73
2023/04/11 06:02:14;;;;;;;10.43;3.10;;;7.70;99.90;;;;;;4935747;29;20395;-73
2023/04/11 06:04:40;;;;;;;9.73;2.92;;;7.70;99.90;;;;;;4931011;29;20044;-73
2023/04/11 06:07:07;;;;;;;9.00;3.13;;;7.70;99.90;;;;;;4927891;29;20048;-73
2023/04/11 06:09:33;;;;;;;9.60;3.00;;;7.70;99.90;;;;;;4932153;29;20054;-73
2023/04/11 06:11:59;;;;;;;10.32;2.70;;;7.70;99.90;;;;;;4924612;29;20074;-73
2023/04/11 06:14:24;;;;;;;11.35;3.17;;;7.70;99.90;;;;;;4930221;29;20075;-73
2023/04/11 06:16:50;;;;;;;10.30;2.70;;;7.80;99.90;;;;;;4919424;29;20123;-72
2023/04/11 06:19:15;;;;;;;8.88;2.75;;;7.80;99.90;;;;;;4932041;29;20040;-73
2023/04/11 06:21:41;;;;;;;11.43;2.88;;;7.90;99.90;;;;;;4940504;29;20461;-73
2023/04/11 06:24:10;;;;;;;10.40;2.72;;;7.90;99.90;;;;;;4932692;29;20488;-73
2023/04/11 06:26:36;;;;;;;10.90;2.30;;;7.90;99.90;;;;;;4932139;29;20035;-73
2023/04/11 06:29:04;;;;;;;12.40;2.80;;;7.90;99.90;;;;;;4916695;29;20421;-73
2023/04/11 06:31:29;;;;;;;11.38;2.42;;;7.90;99.90;;;;;;4932663;29;20122;-73
2023/04/11 06:33:55;;;;;;;9.93;2.95;;;8.00;99.90;;;;;;4932117;28;20130;-73
2023/04/11 06:36:20;;;;;;;10.32;2.90;;;8.00;99.90;;;;;;4939275;29;20047;-73
2023/04/11 06:38:46;;;;;;;13.10;3.15;;;8.00;99.90;;;;;;4931305;29;20047;-74
2023/04/11 06:41:12;;;;;;;12.02;2.65;;;8.10;99.90;;;;;;4932714;29;20082;-73
2023/04/11 06:43:37;;;;;;;9.50;2.83;;;8.10;99.90;;;;;;4937583;29;20043;-73
2023/04/11 06:46:03;;;;;;;9.93;3.20;;;8.20;99.90;;;;;;4914833;29;20090;-73
2023/04/11 06:48:28;;;;;;;11.23;2.47;;;8.20;99.90;;;;;;4932519;29;20036;-73
2023/04/11 06:50:54;;;;;;;10.75;2.67;;;8.20;99.90;;;;;;4939767;29;20115;-73
2023/04/11 06:53:20;;;;;;;12.98;2.90;;;8.30;99.90;;;;;;4932022;29;20043;-73
2023/04/11 06:55:49;;;;;;;10.38;2.88;;;8.30;99.90;;;;;;4945572;28;20047;-75
2023/04/11 06:58:15;;;;;;;11.80;3.13;;;8.30;99.90;;;;;;4945335;29;20054;-74
2023/04/11 07:00:41;;;;;;;13.38;2.85;;;8.30;99.90;;;;;;4938114;28;20043;-74
2023/04/11 07:03:06;;;;;;;13.30;2.63;;;8.30;99.90;;;;;;4930284;29;20044;-74
2023/04/11 07:05:33;;;;;;;12.52;2.90;;;8.30;99.90;;;;;;4934874;29;20047;-74
2023/04/11 07:07:59;;;;;;;12.35;2.60;;;8.30;99.90;;;;;;4934372;29;20040;-74
2023/04/11 07:10:25;;;;;;;11.95;2.95;;;8.40;99.90;;;;;;4935854;29;20512;-74
2023/04/11 07:12:51;;;;;;;11.70;2.72;;;8.50;99.90;;;;;;4936427;29;20130;-74
2023/04/11 07:15:16;;;;;;;11.98;2.80;;;8.50;99.90;;;;;;4935732;29;20092;-74
2023/04/11 07:17:42;;;;;;;10.18;2.47;;;8.60;99.90;;;;;;4936135;29;20062;-74
2023/04/11 07:20:10;;;;;;;10.13;2.25;;;8.50;99.90;;;;;;4935000;29;20051;-74
2023/04/11 07:22:36;;;;;;;10.00;2.90;;;8.50;99.90;;;;;;4931864;29;20054;-74
2023/04/11 07:25:03;;;;;;;10.65;2.83;;;8.60;99.90;;;;;;4931800;29;20374;-74
2023/04/11 07:27:30;;;;;;;13.60;2.90;;;8.70;99.90;;;;;;4942032;29;20039;-74
2023/04/11 07:29:57;;;;;;;11.40;3.00;;;8.70;99.90;;;;;;4938099;29;20048;-74
2023/04/11 07:32:22;;;;;;;8.60;2.40;;;8.80;99.90;;;;;;4942110;29;20397;-75
2023/04/11 07:34:48;;;;;;;9.57;2.28;;;8.80;99.90;;;;;;4934317;29;20054;-75
2023/04/11 07:37:15;;;;;;;9.07;2.60;;;8.80;99.90;;;;;;4935585;29;20040;-74
2023/04/11 07:39:40;;;;;;;12.18;2.95;;;8.90;99.90;;;;;;4929109;29;20609;-74
2023/04/11 07:42:06;;;;;;;12.60;2.65;;;8.90;99.90;;;;;;4930991;29;20122;-74
2023/04/11 07:44:32;;;;;;;9.88;2.50;;;8.90;99.90;;;;;;4917045;29;20032;-75
2023/04/11 07:46:58;;;;;;;9.90;3.08;;;9.00;99.90;;;;;;4926625;29;20035;-74
2023/04/11 07:49:23;;;;;;;9.63;3.13;;;9.00;99.90;;;;;;4934197;29;20497;-73
2023/04/11 07:51:49;;;;;;;10.30;3.40;;;9.00;99.90;;;;;;4939247;29;20126;-73
2023/04/11 07:54:15;;;;;;;11.95;4.35;;;9.00;99.90;;;;;;4942846;28;20074;-73
2023/04/11 07:56:41;;;;;;;13.95;4.78;;;9.00;99.90;;;;;;4934694;28;20051;-74
2023/04/11 07:59:06;;;;;;;12.63;5.32;;;9.00;99.90;;;;;;4941416;29;20051;-74
2023/04/11 08:01:32;;;;;;;10.88;4.68;;;9.20;99.90;;;;;;4942604;29;20039;-74
2023/04/11 08:03:57;;;;;;;12.35;3.58;;;9.30;99.90;;;;;;4945179;29;20047;-74
2023/04/11 08:06:23;;;;;;;12.90;3.50;;;9.30;99.90;;;;;;4948877;29;20046;-74
2023/04/11 08:08:49;;;;;;;10.95;3.03;;;9.40;99.90;;;;;;4944627;29;20039;-74
2023/04/11 08:11:15;;;;;;;9.88;2.85;;;9.50;99.90;;;;;;4942799;29;20035;-74
2023/04/11 08:13:44;;;;;;;11.73;2.40;;;9.50;99.90;;;;;;4943934;29;20035;-74
2023/04/11 08:16:13;;;;;;;11.43;2.50;;;9.70;99.90;;;;;;4944624;28;20039;-74
2023/04/11 08:18:40;;;;;;;8.85;2.67;;;9.80;99.90;;;;;;4934459;29;20043;-74
2023/04/11 08:21:08;;;;;;;10.63;2.70;;;9.80;99.90;;;;;;4937377;29;20493;-74
2023/04/11 08:23:33;;;;;;;8.52;2.22;;;9.90;99.90;;;;;;4938793;29;20057;-74
2023/04/11 08:25:59;;;;;;;11.10;2.58;;;10.00;99.90;;;;;;4932549;29;20039;-74
2023/04/11 08:28:25;;;;;;;9.52;2.53;;;10.00;99.90;;;;;;4932578;29;20036;-74
2023/04/11 08:30:57;;;;;;;9.50;2.20;;;9.90;99.90;;;;;;4940310;29;20094;-74
2023/04/11 08:33:26;;;;;;;11.85;2.92;;;10.00;99.90;;;;;;4940488;29;20048;-74
2023/04/11 08:35:52;;;;;;;9.57;2.55;;;10.20;99.90;;;;;;4935076;29;20043;-74
2023/04/11 08:38:19;;;;;;;10.32;2.75;;;10.20;99.90;;;;;;4932217;29;20123;-73
2023/04/11 08:40:45;;;;;;;9.00;1.92;;;10.10;99.90;;;;;;4933254;29;20387;-73
2023/04/11 08:43:11;;;;;;;9.77;2.58;;;9.80;99.90;;;;;;4933682;29;20036;-74
2023/04/11 08:45:40;;;;;;;8.50;2.25;;;9.60;99.90;;;;;;4934144;29;20051;-73
2023/04/11 08:48:06;;;;;;;10.35;2.92;;;9.40;99.90;;;;;;4941996;29;20046;-73
2023/04/11 08:50:35;;;;;;;18.30;4.20;;;9.20;99.90;;;;;;4935037;29;20036;-73
2023/04/11 08:53:02;;;;;;;12.75;2.97;;;9.10;99.90;;;;;;4938670;29;20506;-73
2023/04/11 08:55:28;;;;;;;13.38;3.70;;;8.90;99.90;;;;;;4940382;29;20043;-73
2023/04/11 08:57:57;;;;;;;9.57;2.50;;;8.60;99.90;;;;;;4936034;29;20066;-73
2023/04/11 09:00:24;;;;;;;13.50;3.67;;;8.40;99.90;;;;;;4931012;29;20059;-73
2023/04/11 09:03:04;;;;;;;13.73;2.83;;;8.20;99.90;;;;;;4945161;29;20075;-72
2023/04/11 09:05:38;;;;;;;12.05;3.10;;;7.90;99.90;;;;;;4932078;28;20032;-72
2023/04/11 09:08:06;;;;;;;12.95;3.60;;;7.50;99.90;;;;;;4932220;29;20047;-72
2023/04/11 09:10:32;;;;;;;12.63;3.50;;;7.30;99.90;;;;;;4931637;29;20051;-73
2023/04/11 09:12:58;;;;;;;12.88;3.40;;;7.50;99.90;;;;;;4936577;29;20042;-73
2023/04/11 09:15:26;;;;;;;14.50;3.45;;;8.40;99.90;;;;;;4939647;29;20035;-73
2023/04/11 09:17:52;;;;;;;10.15;2.78;;;8.80;99.90;;;;;;4936726;28;20071;-73
2023/04/11 09:20:28;;;;;;;8.70;2.55;;;8.80;99.90;;;;;;4934009;29;20063;-73
2023/04/11 09:22:55;;;;;;;12.48;3.05;;;8.60;99.90;;;;;;4936540;29;20127;-73
2023/04/11 09:25:22;;;;;;;11.80;3.05;;;8.40;99.90;;;;;;4929423;29;20048;-73
2023/04/11 09:27:48;;;;;;;10.90;3.25;;;7.90;99.90;;;;;;4926321;29;20088;-73
2023/04/11 09:30:25;;;;;;;11.73;3.25;;;7.50;99.90;;;;;;4944062;29;20063;-73
2023/04/11 09:32:52;;;;;;;16.40;4.28;;;7.40;99.90;;;;;;4933476;29;20066;-73
2023/04/11 09:35:21;;;;;;;14.73;3.40;;;7.50;99.90;;;;;;4946318;28;20182;-73
2023/04/11 09:37:52;;;;;;;14.88;4.20;;;7.60;99.90;;;;;;4941037;29;20402;-73
2023/04/11 09:40:20;;;;;;;12.55;3.53;;;7.90;99.90;;;;;;4942662;29;20046;-73
2023/04/11 09:42:47;;;;;;;13.75;4.45;;;8.30;99.90;;;;;;4932383;29;20047;-74
2023/04/11 09:45:23;;;;;;;12.50;3.42;;;9.00;99.90;;;;;;4940237;28;20418;-74
2023/04/11 09:47:51;;;;;;;14.50;3.60;;;9.90;99.90;;;;;;4934646;29;20043;-73
2023/04/11 09:50:18;;;;;;;13.68;3.53;;;10.40;99.90;;;;;;4950703;29;20043;-74
2023/04/11 09:52:45;;;;;;;11.90;2.88;;;10.60;99.90;;;;;;4937935;29;20040;-74
2023/04/11 09:55:13;;;;;;;13.43;3.13;;;11.10;99.90;;;;;;4932998;29;20064;-74
2023/04/11 09:57:49;;;;;;;11.32;2.63;;;11.60;99.90;;;;;;4932805;29;20498;-74
2023/04/11 10:00:18;;;;;;;9.88;2.97;;;12.00;99.90;;;;;;4934866;29;20035;-74
2023/04/11 10:02:47;;;;;;;10.80;2.90;;;12.60;99.90;;;;;;4950046;29;20454;-75
2023/04/11 10:05:14;;;;;;;9.68;2.35;;;12.90;99.90;;;;;;4948824;28;20055;-73
2023/04/11 10:07:52;;;;;;;9.75;2.50;;;12.90;99.90;;;;;;4931724;29;20035;-75
2023/04/11 10:10:20;;;;;;;11.10;2.80;;;12.50;99.90;;;;;;4939040;29;20143;-75
2023/04/11 10:12:46;;;;;;;15.25;3.20;;;12.40;99.90;;;;;;4945018;29;20118;-74
2023/04/11 10:15:12;;;;;;;9.38;2.47;;;12.60;99.90;;;;;;4945598;28;20118;-74
2023/04/11 10:17:39;;;;;;;10.63;2.58;;;12.70;99.90;;;;;;4952697;29;20398;-74
2023/04/11 10:20:36;;;;;;;9.20;2.45;;;12.50;99.90;;;;;;4950094;29;20110;-74
2023/04/11 10:23:02;;;;;;;8.95;2.47;;;12.30;99.90;;;;;;4939910;29;20123;-74
2023/04/11 10:25:28;;;;;;;10.07;2.28;;;12.50;99.90;;;;;;4933012;29;20040;-75
2023/04/11 10:27:59;;;;;;;9.88;2.70;;;12.50;99.90;;;;;;4934166;29;20091;-75
2023/04/11 10:30:40;;;;;;;10.43;2.78;;;12.00;99.90;;;;;;4932797;29;20027;-75
2023/04/11 10:33:16;;;;;;;9.18;2.63;;;11.40;99.90;;;;;;4937713;29;20075;-74
2023/04/11 10:36:02;;;;;;;11.43;2.88;;;11.40;99.90;;;;;;4948985;29;20085;-74
2023/04/11 10:38:40;;;;;;;12.85;2.97;;;12.10;99.90;;;;;;4938945;28;20182;-74
2023/04/11 10:41:33;;;;;;;9.82;2.47;;;12.70;99.90;;;;;;4934244;29;20182;-74
2023/04/11 10:44:17;;;;;;;8.18;2.33;;;13.10;99.90;;;;;;4926020;29;20043;-74
2023/04/11 10:46:46;;;;;;;10.02;2.97;;;13.20;99.90;;;;;;4935361;29;20040;-74
2023/04/11 10:49:39;;;;;;;8.02;2.28;;;12.90;99.90;;;;;;4940109;29;20091;-74
2023/04/11 10:52:23;;;;;;;11.52;2.63;;;13.10;99.90;;;;;;4936328;29;20043;-76
2023/04/11 10:54:51;;;;;;;9.80;2.58;;;13.00;99.90;;;;;;4931480;29;20078;-74
2023/04/11 10:57:17;;;;;;;10.95;2.17;;;12.90;99.90;;;;;;4936019;29;20054;-74
2023/04/11 10:59:48;;;;;;;11.50;2.25;;;13.00;99.90;;;;;;4943675;29;20403;-74
2023/04/11 11:02:15;;;;;;;11.32;2.20;;;13.40;99.90;;;;;;4955263;29;20494;-74
2023/04/11 11:04:40;;;;;;;9.15;2.38;;;14.00;99.90;;;;;;4955221;28;20405;-74
2023/04/11 11:07:12;;;;;;;7.75;2.10;;;14.50;99.90;;;;;;4935931;28;20053;-75
2023/04/11 11:09:38;;;;;;;8.27;1.95;;;14.60;99.90;;;;;;4941122;29;20063;-74
2023/04/11 11:12:08;;;;;;;11.00;2.72;;;14.20;99.90;;;;;;4920294;29;20067;-74
2023/04/11 11:14:34;;;;;;;9.88;2.00;;;13.50;99.90;;;;;;4936093;29;20126;-74
2023/04/11 11:17:00;;;;;;;8.85;2.38;;;12.80;99.90;;;;;;4936273;29;20466;-74
2023/04/11 11:19:26;;;;;;;8.45;2.47;;;12.60;99.90;;;;;;4942969;29;20067;-74
2023/04/11 11:21:52;;;;;;;8.52;2.08;;;12.80;99.90;;;;;;4953326;29;20066;-73
2023/04/11 11:24:26;;;;;;;8.15;2.65;;;12.40;99.90;;;;;;4935995;29;20494;-74
2023/04/11 11:26:53;;;;;;;11.70;2.22;;;12.00;99.90;;;;;;4935900;29;20047;-74
2023/04/11 11:29:39;;;;;;;12.07;2.90;;;12.10;99.90;;;;;;4935840;29;20075;-74
2023/04/11 11:32:05;;;;;;;10.50;2.75;;;12.80;99.90;;;;;;4940855;29;20046;-74
2023/04/11 11:34:33;;;;;;;7.95;2.20;;;13.00;99.90;;;;;;4930497;29;20489;-74
2023/04/11 11:37:03;;;;;;;8.30;2.38;;;13.40;99.90;;;;;;4944230;29;20047;-75
2023/04/11 11:39:29;;;;;;;7.22;1.80;;;14.00;99.90;;;;;;4938362;29;20047;-75
2023/04/11 11:41:55;;;;;;;7.43;2.13;;;14.60;99.90;;;;;;4943468;29;20066;-75
2023/04/11 11:44:22;;;;;;;8.63;2.38;;;14.90;99.90;;;;;;4940509;28;20043;-75
2023/04/11 11:47:04;;;;;;;8.50;2.08;;;14.50;99.90;;;;;;4937476;29;20044;-75
2023/04/11 11:50:02;;;;;;;8.77;2.00;;;13.70;92.00;;;;;;4935916;28;20041;-75
2023/04/11 11:52:40;;;;;;;14.48;2.40;;;13.00;99.90;;;;;;4920794;29;20537;-75
2023/04/11 11:55:09;;;;;;;7.28;2.10;;;12.80;99.90;;;;;;4950498;28;20052;-75
2023/04/11 11:57:46;;;;;;;8.05;1.80;;;12.60;99.90;;;;;;4950839;29;20063;-75
2023/04/11 12:00:12;;;;;;;7.57;2.10;;;13.20;99.90;;;;;;4950766;29;20043;-74
2023/04/11 12:02:40;;;;;;;6.68;2.05;;;13.60;99.90;;;;;;4934971;29;20043;-75
2023/04/11 12:05:09;;;;;;;7.53;2.00;;;14.10;99.90;;;;;;4934686;29;20403;-75
2023/04/11 12:07:39;;;;;;;9.30;2.08;;;14.70;99.90;;;;;;4950609;29;20040;-75
2023/04/11 12:10:08;;;;;;;8.82;2.15;;;15.00;99.90;;;;;;4954293;29;20047;-75
2023/04/11 12:12:36;;;;;;;9.65;2.20;;;15.10;99.90;;;;;;4943470;29;20566;-75
2023/04/11 12:15:08;;;;;;;7.65;1.75;;;15.20;99.90;;;;;;4931861;29;20043;-75
2023/04/11 12:17:34;;;;;;;8.20;2.08;;;15.60;88.50;;;;;;4936880;29;20043;-75
2023/04/11 12:20:01;;;;;;;6.68;1.90;;;15.30;91.90;;;;;;4934795;29;20054;-75
2023/04/11 12:22:26;;;;;;;6.82;1.70;;;15.00;95.00;;;;;;4933521;29;20047;-75
2023/04/11 12:25:02;;;;;;;7.63;1.83;;;14.90;86.20;;;;;;4940271;29;20051;-75
2023/04/11 12:27:27;;;;;;;7.53;1.90;;;14.80;96.80;;;;;;4934712;29;20052;-75
2023/04/11 12:29:53;;;;;;;7.00;2.00;;;14.70;90.30;;;;;;4934807;29;20043;-75
2023/04/11 12:32:18;;;;;;;10.48;2.35;;;14.40;91.10;;;;;;4935145;29;20865;-75
2023/04/11 12:34:44;;;;;;;7.07;2.03;;;14.10;99.90;;;;;;4934135;29;20035;-75
2023/04/11 12:37:09;;;;;;;10.82;2.83;;;13.30;94.70;;;;;;4953830;29;20413;-75
2023/04/11 12:39:36;;;;;;;8.57;1.90;;;13.00;99.90;;;;;;4941845;29;20044;-75
2023/04/11 12:42:02;;;;;;;8.90;2.10;;;13.80;99.90;;;;;;4915316;29;20090;-75
2023/04/11 12:44:27;;;;;;;8.07;2.38;;;14.00;95.90;;;;;;4932973;29;20130;-75
2023/04/11 12:46:53;;;;;;;9.38;2.50;;;13.50;99.90;;;;;;4932031;29;20035;-75
2023/04/11 12:49:18;;;;;;;6.35;1.88;;;13.90;99.90;;;;;;4927773;29;20044;-75
2023/04/11 12:51:44;;;;;;;7.80;2.33;;;14.40;99.90;;;;;;4941017;29;20035;-75
2023/04/11 12:54:09;;;;;;;9.40;2.45;;;14.70;99.90;;;;;;4918454;29;20075;-75
2023/04/11 12:56:35;;;;;;;8.20;2.30;;;14.70;86.30;;;;;;4938095;29;20576;-75
2023/04/11 12:59:00;;;;;;;10.38;2.38;;;14.80;99.90;;;;;;4940798;29;20111;-75
2023/04/11 13:01:26;;;;;;;8.23;2.25;;;15.00;99.90;;;;;;4933761;29;20179;-75
2023/04/11 13:03:51;;;;;;;8.05;1.90;;;15.00;99.90;;;;;;4935612;28;20050;-75
2023/04/11 13:06:17;;;;;;;7.93;2.40;;;15.40;99.90;;;;;;4937925;29;20138;-74
2023/04/11 13:08:43;;;;;;;7.25;2.20;;;15.40;99.90;;;;;;4935415;29;20487;-74
2023/04/11 13:11:08;;;;;;;7.90;2.00;;;15.30;97.20;;;;;;4924890;29;20127;-75
2023/04/11 13:13:34;;;;;;;9.48;2.30;;;14.30;77.40;;;;;;4931638;29;20039;-75
2023/04/11 13:15:59;;;;;;;8.57;2.15;;;14.30;99.90;;;;;;4936780;28;20051;-76
2023/04/11 13:18:25;;;;;;;8.80;1.95;;;15.10;89.60;;;;;;4947699;29;20418;-76
2023/04/11 13:20:50;;;;;;;9.00;2.28;;;15.10;77.30;;;;;;4952754;28;20071;-75
2023/04/11 13:23:16;;;;;;;7.43;2.00;;;14.00;78.70;;;;;;4944732;29;20043;-75
2023/04/11 13:25:41;;;;;;;9.02;1.90;;;13.40;87.40;;;;;;4944951;29;20393;-75
2023/04/11 13:28:07;;;;;;;7.00;1.98;;;13.40;90.00;;;;;;4947022;29;20251;-76
2023/04/11 13:30:33;;;;;;;7.85;2.17;;;13.40;94.50;;;;;;4941314;29;20044;-75
2023/04/11 13:32:58;;;;;;;9.15;2.10;;;14.10;99.90;;;;;;4943448;29;20052;-75
2023/04/11 13:35:24;;;;;;;7.85;2.45;;;14.30;99.90;;;;;;4941642;28;20094;-76
2023/04/11 13:37:50;;;;;;;9.18;2.55;;;14.40;81.30;;;;;;4933742;29;20047;-75
2023/04/11 13:40:16;;;;;;;9.10;2.30;;;14.80;84.50;;;;;;4939642;29;20541;-75
2023/04/11 13:42:41;;;;;;;8.95;2.35;;;15.20;79.80;;;;;;4932630;29;20044;-75
2023/04/11 13:45:07;;;;;;;7.32;2.13;;;15.50;84.90;;;;;;4944573;29;20042;-75
2023/04/11 13:47:33;;;;;;;8.50;2.00;;;15.20;79.70;;;;;;4943633;29;20043;-75
2023/04/11 13:49:58;;;;;;;10.63;2.30;;;14.40;77.60;;;;;;4941185;29;20418;-75
2023/04/11 13:52:24;;;;;;;9.80;2.65;;;13.90;80.90;;;;;;4931196;29;20048;-75
2023/04/11 13:54:50;;;;;;;7.40;2.20;;;13.50;87.30;;;;;;4940955;28;20047;-75
2023/04/11 13:57:15;;;;;;;9.95;2.80;;;13.50;96.90;;;;;;4916659;29;20035;-75
2023/04/11 13:59:41;;;;;;;9.65;2.72;;;13.90;99.90;;;;;;4948577;29;20047;-75
2023/04/11 14:02:07;;;;;;;9.27;2.60;;;14.60;97.90;;;;;;4929556;29;20027;-75
2023/04/11 14:04:32;;;;;;;9.38;2.42;;;15.00;90.80;;;;;;4940335;29;20048;-76
2023/04/11 14:06:58;;;;;;;9.18;2.42;;;15.50;83.80;;;;;;4943057;29;20039;-75
2023/04/11 14:09:23;;;;;;;9.60;2.40;;;15.60;83.30;;;;;;4932223;29;20047;-76
2023/04/11 14:11:49;;;;;;;9.30;2.17;;;15.30;77.10;;;;;;4924900;29;20047;-75
2023/04/11 14:14:15;;;;;;;9.15;2.42;;;15.50;83.70;;;;;;4921214;29;20063;-76
2023/04/11 14:16:40;;;;;;;7.28;2.25;;;15.70;78.10;;;;;;4935209;29;20126;-76
2023/04/11 14:19:06;;;;;;;9.80;2.55;;;15.40;70.40;;;;;;4936561;29;20521;-76
2023/04/11 14:21:31;;;;;;;8.63;2.10;;;15.20;71.70;;;;;;4931961;29;20040;-76
2023/04/11 14:23:57;;;;;;;6.32;1.90;;;14.90;73.90;;;;;;4917950;29;20106;-76
2023/04/11 14:26:23;;;;;;;8.68;1.90;;;14.70;72.90;;;;;;4936237;29;20062;-74
2023/04/11 14:28:49;;;;;;;6.82;2.10;;;14.50;74.80;;;;;;4930845;29;20040;-75
2023/04/11 14:31:14;;;;;;;6.88;1.73;;;14.40;76.70;;;;;;4945328;29;20042;-74
2023/04/11 14:33:40;;;;;;;7.45;2.40;;;14.10;74.50;;;;;;4939671;29;20498;-74
2023/04/11 14:36:06;;;;;;;7.28;2.00;;;13.80;75.80;;;;;;4944085;28;20047;-75
2023/04/11 14:38:32;;;;;;;7.93;2.35;;;13.80;80.00;;;;;;4944742;29;20127;-76
2023/04/11 14:40:57;;;;;;;6.88;1.83;;;13.60;71.30;;;;;;4936057;29;20090;-76
2023/04/11 14:43:23;;;;;;;8.55;2.20;;;13.30;75.80;;;;;;4918390;29;20040;-76
2023/04/11 14:45:48;;;;;;;7.30;1.80;;;13.00;75.60;;;;;;4937074;28;20394;-75
2023/04/11 14:48:14;;;;;;;7.78;2.10;;;12.80;80.70;;;;;;4935433;29;20106;-75
2023/04/11 14:50:40;;;;;;;6.82;1.80;;;12.70;78.60;;;;;;4943589;29;20043;-75
2023/04/11 14:53:05;;;;;;;6.85;2.13;;;12.60;83.20;;;;;;4941346;29;20094;-76
2023/04/11 14:55:31;;;;;;;7.40;1.67;;;12.60;83.80;;;;;;4939292;29;20078;-75
2023/04/11 14:57:56;;;;;;;7.88;1.95;;;12.50;81.60;;;;;;4944082;29;20042;-75
2023/04/11 15:00:23;;;;;;;6.70;1.83;;;12.30;84.00;;;;;;4935028;29;20179;-75
2023/04/11 15:02:51;;;;;;;6.72;2.20;;;12.20;82.30;;;;;;4935634;29;20190;-75
2023/04/11 15:05:18;;;;;;;8.50;1.98;;;12.00;79.70;;;;;;4935380;29;20035;-75
2023/04/11 15:07:48;;;;;;;6.72;1.73;;;12.00;90.50;;;;;;4943225;29;20031;-75
2023/04/11 15:10:17;;;;;;;5.97;1.70;;;11.90;89.30;;;;;;4948204;29;20047;-75
2023/04/11 15:12:43;;;;;;;5.97;1.67;;;12.00;93.20;;;;;;4935199;29;20056;-75
2023/04/11 15:15:09;;;;;;;5.47;1.60;;;12.00;93.30;;;;;;4933755;29;20083;-75
2023/04/11 15:17:40;;;;;;;7.35;1.95;;;12.10;89.00;;;;;;4943503;29;20422;-75
2023/04/11 15:20:08;;;;;;;8.20;1.80;;;12.10;95.20;;;;;;4945473;29;20051;-74
2023/04/11 15:22:36;;;;;;;8.25;1.55;;;12.10;87.20;;;;;;4938065;29;20138;-75
2023/04/11 15:25:01;;;;;;;7.70;1.73;;;12.10;86.20;;;;;;4943487;29;20048;-75
2023/04/11 15:27:27;;;;;;;6.13;1.80;;;12.10;83.40;;;;;;4942371;29;20067;-75
2023/04/11 15:29:54;;;;;;;7.53;1.73;;;12.10;90.00;;;;;;4935745;29;20062;-75
2023/04/11 15:32:20;;;;;;;6.22;1.40;;;12.10;91.20;;;;;;4935032;29;20062;-75
2023/04/11 15:34:48;;;;;;;4.72;1.70;;;12.10;91.50;;;;;;4926432;29;20048;-75
2023/04/11 15:37:14;;;;;;;8.52;2.40;;;12.10;89.80;;;;;;4946835;29;20047;-75
2023/04/11 15:39:39;;;;;;;6.13;1.45;;;12.10;92.30;;;;;;4955153;29;20452;-75
2023/04/11 15:42:05;;;;;;;5.22;1.40;;;12.10;94.90;;;;;;4944422;29;20335;-75
2023/04/11 15:44:31;;;;;;;4.03;1.50;;;12.10;92.70;;;;;;4934393;29;20043;-75
2023/04/11 15:46:56;;;;;;;5.78;1.58;;;12.10;93.20;;;;;;4945584;29;20398;-74
2023/04/11 15:49:22;;;;;;;6.20;1.58;;;12.00;85.00;;;;;;4954670;29;20058;-74
2023/04/11 15:51:47;;;;;;;6.07;1.70;;;11.90;82.80;;;;;;4946314;29;20040;-75
2023/04/11 15:54:13;;;;;;;8.98;2.10;;;11.90;87.20;;;;;;4932265;29;20167;-75
2023/04/11 15:56:38;;;;;;;6.97;1.67;;;11.70;88.60;;;;;;4934658;29;20565;-75
2023/04/11 15:59:04;;;;;;;9.48;1.98;;;11.70;86.90;;;;;;4930875;29;20569;-75
2023/04/11 16:01:30;;;;;;;6.50;1.80;;;11.60;94.50;;;;;;4934245;29;20046;-74
2023/04/11 16:03:55;;;;;;;6.32;1.65;;;11.50;87.80;;;;;;4934050;29;20047;-74
2023/04/11 16:06:21;;;;;;;8.00;1.85;;;11.40;95.30;;;;;;4941608;29;20038;-75
2023/04/11 16:08:47;;;;;;;7.78;2.25;;;11.40;90.60;;;;;;4934176;29;20048;-75
2023/04/11 16:11:12;;;;;;;4.35;1.67;;;11.30;94.10;;;;;;4947024;29;20553;-74
2023/04/11 16:13:38;;;;;;;7.53;1.70;;;11.30;94.70;;;;;;4954575;29;20560;-74
2023/04/11 16:16:04;;;;;;;8.32;2.25;;;11.30;93.80;;;;;;4932925;28;20047;-76
2023/04/11 16:18:30;;;;;;;7.60;2.40;;;11.20;95.30;;;;;;4939240;29;20098;-73
2023/04/11 16:20:55;;;;;;;8.25;2.65;;;11.20;95.90;;;;;;4934950;29;20055;-74
2023/04/11 16:23:21;;;;;;;7.40;2.10;;;11.20;94.10;;;;;;4934807;29;20060;-74
2023/04/11 16:25:46;;;;;;;5.38;1.80;;;11.10;99.50;;;;;;4941611;29;20054;-74
2023/04/11 16:28:13;;;;;;;7.47;2.28;;;11.10;99.90;;;;;;4942641;29;20039;-74
2023/04/11 16:30:38;;;;;;;5.95;1.95;;;11.10;99.90;;;;;;4945766;29;20051;-74
2023/04/11 16:33:04;;;;;;;9.70;1.98;;;11.00;99.90;;;;;;4953871;29;20035;-75
2023/04/11 16:35:29;;;;;;;7.68;2.17;;;11.00;99.90;;;;;;4932407;29;20043;-75
2023/04/11 16:37:55;;;;;;;8.13;2.25;;;10.90;99.90;;;;;;4932016;29;20402;-75
2023/04/11 16:40:20;;;;;;;6.70;2.00;;;10.90;99.90;;;;;;4942346;29;20376;-75
2023/04/11 16:42:46;;;;;;;5.75;1.90;;;10.80;99.90;;;;;;4934694;29;20079;-74
2023/04/11 16:45:12;;;;;;;8.02;2.08;;;10.80;99.90;;;;;;4945064;29;20031;-75
2023/04/11 16:47:37;;;;;;;9.77;1.90;;;10.80;99.90;;;;;;4941674;29;20042;-75
2023/04/11 16:50:04;;;;;;;5.35;1.70;;;10.80;99.90;;;;;;4939118;29;20190;-75
2023/04/11 16:52:30;;;;;;;6.05;1.75;;;10.70;99.90;;;;;;4945327;29;20061;-75
2023/04/11 16:54:56;;;;;;;7.53;2.55;;;10.70;99.90;;;;;;4943395;28;20044;-75
2023/04/11 16:57:23;;;;;;;6.90;1.92;;;10.70;99.90;;;;;;4934276;29;20402;-75
2023/04/11 16:59:48;;;;;;;6.97;2.03;;;10.60;99.90;;;;;;4918619;29;20048;-74
2023/04/11 17:02:14;;;;;;;7.75;2.20;;;10.60;99.90;;;;;;4943270;29;20039;-75
2023/04/11 17:04:40;;;;;;;7.72;2.00;;;10.60;99.90;;;;;;4937587;28;20554;-75
2023/04/11 17:07:05;;;;;;;7.10;2.15;;;10.60;99.90;;;;;;4932249;29;20047;-74
2023/04/11 17:09:31;;;;;;;10.10;2.78;;;10.60;99.90;;;;;;4929125;29;20050;-75
2023/04/11 17:11:59;;;;;;;8.93;2.60;;;10.60;99.90;;;;;;4941963;29;20044;-75
2023/04/11 17:14:24;;;;;;;11.00;3.17;;;10.60;99.90;;;;;;4933886;29;20055;-75
2023/04/11 17:16:50;;;;;;;9.13;2.67;;;10.50;99.90;;;;;;4941179;29;20102;-75
2023/04/11 17:19:15;;;;;;;9.18;2.63;;;10.40;99.90;;;;;;4937575;29;20047;-74
2023/04/11 17:21:41;;;;;;;7.75;2.10;;;10.40;99.90;;;;;;4931289;29;20078;-75
2023/04/11 17:24:06;;;;;;;9.65;2.60;;;10.30;99.90;;;;;;4933522;29;20048;-75
2023/04/11 17:26:33;;;;;;;11.88;2.83;;;10.20;99.90;;;;;;4940082;29;20050;-75
2023/04/11 17:28:59;;;;;;;8.65;3.38;;;10.20;99.90;;;;;;4944865;29;20039;-75
2023/04/11 17:31:26;;;;;;;9.93;2.90;;;10.10;99.90;;;;;;4927017;28;20043;-75
2023/04/11 17:33:52;;;;;;;11.50;3.00;;;10.00;99.90;;;;;;4916074;29;20570;-75
2023/04/11 17:36:18;;;;;;;11.20;2.85;;;10.00;99.90;;;;;;4915769;29;20047;-75
2023/04/11 17:38:44;;;;;;;9.65;3.20;;;9.90;99.90;;;;;;4933795;29;20458;-75
2023/04/11 17:41:10;;;;;;;9.13;3.10;;;9.80;99.90;;;;;;4935337;29;20050;-75
2023/04/11 17:43:35;;;;;;;7.75;2.83;;;9.70;99.90;;;;;;4936224;29;20047;-75
2023/04/11 17:46:01;;;;;;;8.82;3.17;;;9.60;99.90;;;;;;4933985;29;20035;-75
2023/04/11 17:48:26;;;;;;;8.20;3.05;;;9.50;99.90;;;;;;4942278;29;20050;-75
2023/04/11 17:50:53;;;;;;;9.75;3.50;;;9.40;99.90;;;;;;4939401;29;20048;-75
2023/04/11 17:53:19;;;;;;;8.52;3.30;;;9.30;99.90;;;;;;4938533;29;20047;-75
2023/04/11 17:55:47;;;;;;;9.93;3.58;;;9.20;99.90;;;;;;4929672;29;20075;-75
2023/04/11 17:58:13;;;;;;;10.65;3.80;;;9.20;99.90;;;;;;4931206;29;20040;-75
2023/04/11 18:00:38;;;;;;;11.18;3.72;;;9.00;99.90;;;;;;4939961;29;20046;-75
2023/04/11 18:03:04;;;;;;;11.18;3.90;;;8.90;99.90;;;;;;4930668;29;20039;-75
2023/04/11 18:05:30;;;;;;;12.38;3.78;;;8.80;99.90;;;;;;4937757;28;20044;-75
2023/04/11 18:07:57;;;;;;;11.90;3.92;;;8.70;99.90;;;;;;4933605;29;20043;-75
2023/04/11 18:10:24;;;;;;;11.25;4.18;;;8.60;99.90;;;;;;4942982;29;20060;-75
2023/04/11 18:12:51;;;;;;;13.05;4.53;;;8.50;99.90;;;;;;4934040;29;20134;-75
2023/04/11 18:15:17;;;;;;;8.45;4.00;;;8.40;99.90;;;;;;4916922;29;20042;-75
2023/04/11 18:17:43;;;;;;;13.50;4.88;;;8.20;99.90;;;;;;4932497;29;20047;-76
2023/04/11 18:20:11;;;;;;;11.90;4.60;;;8.10;99.90;;;;;;4934470;29;20048;-76
2023/04/11 18:22:45;;;;;;;11.80;4.63;;;8.00;99.90;;;;;;4947377;29;20508;-74
2023/04/11 18:25:11;;;;;;;12.70;5.07;;;7.90;99.90;;;;;;4933240;29;20167;-74
2023/04/11 18:27:38;;;;;;;13.27;5.22;;;7.80;99.90;;;;;;4931278;29;20118;-74
2023/04/11 18:30:14;;;;;;;12.40;5.95;;;7.70;99.90;;;;;;4915596;29;20514;-74